Time;durP1;ratioP1;P1;durP2;ratioP2;P2;SDS_P1;SDS_P2;PMS_P1;PMS_P2;Temp;Humidity;BMP_temperature;BMP_pressure;BME280_temperature;BME280_humidity;BME280_pressure;Samples;Min_cycle;Max_cycle;Signal;HPM_P1;HPM_P2
2023/10/30 00:01:01;;;;;;;;;;;;;;;9.26;100.00;99771.88;5023350;28;1228;-74
2023/10/30 00:03:29;;;;;;;;;;;;;;;9.24;100.00;99779.00;5024011;28;1201;-73
2023/10/30 00:05:54;;;;;;;;;;;;;;;9.20;100.00;99772.47;5025309;28;1380;-74
2023/10/30 00:08:20;;;;;;;;;;;;;;;9.19;100.00;99776.00;5025056;28;1281;-72
2023/10/30 00:10:45;;;;;;;;;;;;;;;9.18;100.00;99779.56;5024635;28;1374;-73
2023/10/30 00:13:10;;;;;;;;;;;;;;;9.15;100.00;99770.28;5027760;28;1318;-73
2023/10/30 00:15:36;;;;;;;;;;;;;;;9.14;100.00;99785.97;5027775;28;1961;-73
2023/10/30 00:18:01;;;;;;;;;;;;;;;9.13;100.00;99797.28;5009105;28;1111;-73
2023/10/30 00:20:26;;;;;;;;;;;;;;;9.13;100.00;99797.28;5028204;28;993;-73
2023/10/30 00:22:52;;;;;;;;;;;;;;;9.14;100.00;99798.91;5026448;28;1328;-73
2023/10/30 00:25:18;;;;;;;;;;;;;;;9.14;100.00;99794.53;5025632;28;1160;-73
2023/10/30 00:27:43;;;;;;;;;;;;;;;9.15;100.00;99801.34;5006889;28;1225;-73
2023/10/30 00:30:09;;;;;;;;;;;;;;;9.17;100.00;99798.59;5027521;28;1333;-72
2023/10/30 00:32:34;;;;;;;;;;;;;;;9.18;100.00;99805.44;5026089;28;1125;-73
2023/10/30 00:34:59;;;;;;;;;;;;;;;9.18;100.00;99806.25;5025165;28;1941;-73
2023/10/30 00:37:25;;;;;;;;;;;;;;;9.20;100.00;99798.31;5022368;28;1073;-73
2023/10/30 00:39:50;;;;;;;;;;;;;;;9.21;100.00;99799.94;5022333;28;1099;-73
2023/10/30 00:42:15;;;;;;;;;;;;;;;9.23;100.00;99816.13;5021945;28;1671;-73
2023/10/30 00:44:41;;;;;;;;;;;;;;;9.19;100.00;99807.88;5019873;28;1291;-73
2023/10/30 00:47:06;;;;;;;;;;;;;;;9.24;100.00;99815.22;5007750;28;1514;-73
2023/10/30 00:49:31;;;;;;;;;;;;;;;9.26;100.00;99818.47;5020114;28;1237;-73
2023/10/30 00:51:56;;;;;;;;;;;;;;;9.28;100.00;99821.72;5020942;28;1684;-72
2023/10/30 00:54:22;;;;;;;;;;;;;;;9.31;100.00;99818.84;5020656;28;1890;-73
2023/10/30 00:56:47;;;;;;;;;;;;;;;9.32;100.00;99828.25;5024584;28;1243;-74
2023/10/30 00:59:12;;;;;;;;;;;;;;;9.34;100.00;99830.69;5009161;28;1184;-73
2023/10/30 01:01:37;;;;;;;;;;;;;;;9.36;100.00;99834.78;5024520;28;1349;-73
2023/10/30 01:04:02;;;;;;;;;;;;;;;9.37;100.00;99836.41;5020731;28;1337;-72
2023/10/30 01:06:28;;;;;;;;;;;;;;;9.37;100.00;99845.94;5024839;28;1337;-73
2023/10/30 01:08:53;;;;;;;;;;;;;;;9.38;100.00;99848.38;5026283;28;1309;-73
2023/10/30 01:11:18;;;;;;;;;;;;;;;9.38;100.00;99858.72;5028608;28;1115;-73
2023/10/30 01:13:43;;;;;;;;;;;;;;;9.35;100.00;99851.25;5012517;28;1397;-73
2023/10/30 01:16:08;;;;;;;;;;;;;;;9.40;100.00;99848.22;5022738;28;1984;-73
2023/10/30 01:18:34;;;;;;;;;;;;;;;9.41;100.00;99861.03;5023161;28;1429;-73
2023/10/30 01:20:59;;;;;;;;;;;;;;;9.41;100.00;99860.25;5026086;28;1194;-74
2023/10/30 01:23:24;;;;;;;;;;;;;;;9.40;100.00;99851.63;5020895;28;1326;-73
2023/10/30 01:25:49;;;;;;;;;;;;;;;9.42;100.00;99864.44;5024140;28;1246;-72
2023/10/30 01:28:15;;;;;;;;;;;;;;;9.42;100.00;99864.44;5021268;28;1218;-73
2023/10/30 01:30:40;;;;;;;;;;;;;;;9.41;100.00;99863.63;5025106;28;1098;-73
2023/10/30 01:33:05;;;;;;;;;;;;;;;9.42;100.00;99867.84;5024666;28;1235;-73
2023/10/30 01:35:31;;;;;;;;;;;;;;;9.40;100.00;99861.97;5023559;28;1921;-73
2023/10/30 01:37:56;;;;;;;;;;;;;;;9.42;100.00;99869.63;5027233;28;1738;-72
2023/10/30 01:40:21;;;;;;;;;;;;;;;9.43;100.00;99866.88;5020208;28;1227;-73
2023/10/30 01:42:46;;;;;;;;;;;;;;;9.41;100.00;99863.63;5021433;28;1207;-73
2023/10/30 01:45:11;;;;;;;;;;;;;;;9.42;100.00;99854.91;5022163;28;1279;-73
2023/10/30 01:47:38;;;;;;;;;;;;;;;9.40;100.00;99845.63;5021554;28;1230;-73
2023/10/30 01:50:05;;;;;;;;;;;;;;;9.41;100.00;99847.28;5022397;28;1151;-73
2023/10/30 01:52:31;;;;;;;;;;;;;;;9.42;100.00;99849.72;5018890;28;1207;-73
2023/10/30 01:54:56;;;;;;;;;;;;;;;9.42;100.00;99839.38;5021828;28;1890;-72
2023/10/30 01:57:22;;;;;;;;;;;;;;;9.44;100.00;99847.81;5023497;28;1405;-73
2023/10/30 01:59:49;;;;;;;;;;;;;;;9.44;100.00;99847.81;5020753;28;1151;-73
2023/10/30 02:02:14;;;;;;;;;;;;;;;9.44;100.00;99852.97;5023938;28;1370;-74
2023/10/30 02:04:39;;;;;;;;;;;;;;;9.47;100.00;99846.72;5006685;28;1644;-73
2023/10/30 02:07:04;;;;;;;;;;;;;;;9.46;100.00;99856.28;5023264;28;1360;-73
2023/10/30 02:09:31;;;;;;;;;;;;;;;9.46;100.00;99861.44;5024093;28;1315;-73
2023/10/30 02:11:57;;;;;;;;;;;;;;;9.46;100.00;99864.03;5024350;28;1457;-73
2023/10/30 02:14:23;;;;;;;;;;;;;;;9.48;100.00;99859.53;5005106;28;1909;-73
2023/10/30 02:16:48;;;;;;;;;;;;;;;9.48;100.00;99869.88;5023581;28;1386;-72
2023/10/30 02:19:18;;;;;;;;;;;;;;;9.49;100.00;99874.09;5020980;28;1239;-73
2023/10/30 02:21:44;;;;;;;;;;;;;;;9.48;100.00;99864.69;5021164;28;1161;-72
2023/10/30 02:24:09;;;;;;;;;;;;;;;9.50;100.00;99865.34;5020763;28;1042;-73
2023/10/30 02:26:34;;;;;;;;;;;;;;;9.50;100.00;99867.94;5022860;28;1082;-73
2023/10/30 02:29:01;;;;;;;;;;;;;;;9.50;100.00;99875.72;5026072;28;1062;-73
2023/10/30 02:31:26;;;;;;;;;;;;;;;9.49;100.00;99873.28;5021719;28;1021;-74
2023/10/30 02:33:52;;;;;;;;;;;;;;;9.49;100.00;99876.69;5025891;28;1135;-73
2023/10/30 02:36:18;;;;;;;;;;;;;;;9.50;100.00;99867.94;5020510;28;1914;-73
2023/10/30 02:38:43;;;;;;;;;;;;;;;9.51;100.00;99858.41;5016004;28;1386;-73
2023/10/30 02:41:08;;;;;;;;;;;;;;;9.51;100.00;99869.56;5022815;28;1071;-73
2023/10/30 02:43:33;;;;;;;;;;;;;;;9.52;100.00;99871.22;5024502;28;1349;-73
2023/10/30 02:45:59;;;;;;;;;;;;;;;9.52;100.00;99868.66;4997841;28;1227;-73
2023/10/30 02:48:24;;;;;;;;;;;;;;;9.53;100.00;99856.50;5023408;28;1636;-72
2023/10/30 02:50:49;;;;;;;;;;;;;;;9.55;100.00;99860.56;5018364;28;1080;-73
2023/10/30 02:53:14;;;;;;;;;;;;;;;9.54;100.00;99864.13;5023166;28;1221;-73
2023/10/30 02:55:39;;;;;;;;;;;;;;;9.55;100.00;99865.75;5023749;28;2009;-73
2023/10/30 02:58:04;;;;;;;;;;;;;;;9.57;100.00;99863.81;5022355;28;1559;-73
2023/10/30 03:00:30;;;;;;;;;;;;;;;9.56;100.00;99862.19;5022307;28;1272;-73
2023/10/30 03:02:55;;;;;;;;;;;;;;;9.56;100.00;99851.84;5020874;28;1081;-73
2023/10/30 03:05:20;;;;;;;;;;;;;;;9.56;100.00;99867.38;5018904;28;1223;-73
2023/10/30 03:07:45;;;;;;;;;;;;;;;9.57;100.00;99863.81;5024004;28;1288;-73
2023/10/30 03:10:10;;;;;;;;;;;;;;;9.56;100.00;99862.19;5022960;28;1299;-73
2023/10/30 03:12:36;;;;;;;;;;;;;;;9.55;100.00;99864.94;5024003;28;1278;-73
2023/10/30 03:15:01;;;;;;;;;;;;;;;9.53;100.00;99867.69;5019669;28;1997;-72
2023/10/30 03:17:26;;;;;;;;;;;;;;;9.54;100.00;99874.47;5023293;28;1222;-73
2023/10/30 03:19:51;;;;;;;;;;;;;;;9.54;100.00;99884.03;5006507;28;1391;-73
2023/10/30 03:22:16;;;;;;;;;;;;;;;9.51;100.00;99877.34;5025026;28;1306;-73
2023/10/30 03:24:42;;;;;;;;;;;;;;;9.51;100.00;99884.28;5021138;28;1214;-72
2023/10/30 03:27:07;;;;;;;;;;;;;;;9.52;100.00;99880.78;5025949;28;1519;-73
2023/10/30 03:29:36;;;;;;;;;;;;;;;9.50;100.00;99888.66;5021232;28;1283;-73
2023/10/30 03:32:01;;;;;;;;;;;;;;;9.47;100.00;99888.94;5025776;28;1360;-73
2023/10/30 03:34:26;;;;;;;;;;;;;;;9.47;100.00;99888.94;5023351;28;1999;-73
2023/10/30 03:36:52;;;;;;;;;;;;;;;9.45;100.00;99888.25;5020676;28;1315;-73
2023/10/30 03:39:17;;;;;;;;;;;;;;;9.45;100.00;99890.84;5006287;28;1402;-73
2023/10/30 03:41:44;;;;;;;;;;;;;;;9.43;100.00;99887.59;5018951;28;1444;-73
2023/10/30 03:44:10;;;;;;;;;;;;;;;9.43;100.00;99886.78;5004609;28;1713;-73
2023/10/30 03:46:35;;;;;;;;;;;;;;;9.39;100.00;99886.22;5004508;28;1457;-73
2023/10/30 03:49:00;;;;;;;;;;;;;;;9.39;100.00;99875.88;5014065;28;1277;-73
2023/10/30 03:51:25;;;;;;;;;;;;;;;9.37;100.00;99882.97;5022820;28;1267;-73
2023/10/30 03:53:51;;;;;;;;;;;;;;;9.36;100.00;99881.34;5020605;28;1322;-73
2023/10/30 03:56:16;;;;;;;;;;;;;;;9.36;100.00;99870.19;5021091;28;1965;-73
2023/10/30 03:58:41;;;;;;;;;;;;;;;9.33;100.00;99871.28;5019909;28;1241;-73
2023/10/30 04:01:07;;;;;;;;;;;;;;;9.29;100.00;99870.75;5019611;28;1713;-74
2023/10/30 04:03:32;;;;;;;;;;;;;;;9.29;100.00;99869.94;5018900;28;1287;-73
2023/10/30 04:06:03;;;;;;;;;;;;;;;9.30;100.00;99871.56;5003144;28;1389;-74
2023/10/30 04:08:29;;;;;;;;;;;;;;;9.29;100.00;99872.53;5016040;28;1306;-73
2023/10/30 04:10:54;;;;;;;;;;;;;;;9.27;100.00;99867.47;5012904;28;1330;-72
2023/10/30 04:13:19;;;;;;;;;;;;;;;9.26;100.00;99865.84;5023952;28;1209;-72
2023/10/30 04:15:45;;;;;;;;;;;;;;;9.26;100.00;99865.03;5023325;28;1898;-73
2023/10/30 04:18:11;;;;;;;;;;;;;;;9.26;100.00;99865.03;5028411;28;1094;-73
2023/10/30 04:20:36;;;;;;;;;;;;;;;9.26;100.00;99865.03;5023677;28;1271;-73
2023/10/30 04:23:01;;;;;;;;;;;;;;;9.26;100.00;99865.03;5026604;28;1234;-73
2023/10/30 04:25:26;;;;;;;;;;;;;;;9.25;100.00;99855.66;5026430;28;1384;-73
2023/10/30 04:27:53;;;;;;;;;;;;;;;9.25;100.00;99863.41;5026102;28;1142;-73
2023/10/30 04:30:19;;;;;;;;;;;;;;;9.24;100.00;99862.59;5027172;28;1074;-73
2023/10/30 04:32:44;;;;;;;;;;;;;;;9.24;100.00;99856.59;5021133;28;1162;-73
2023/10/30 04:35:10;;;;;;;;;;;;;;;9.24;100.00;99861.78;5022700;28;1894;-74
2023/10/30 04:37:35;;;;;;;;;;;;;;;9.23;100.00;99860.13;5022717;28;1124;-73
2023/10/30 04:40:00;;;;;;;;;;;;;;;9.22;100.00;99864.47;5022623;28;1062;-73
2023/10/30 04:42:27;;;;;;;;;;;;;;;9.23;100.00;99878.22;5001053;28;1285;-73
2023/10/30 04:44:52;;;;;;;;;;;;;;;9.21;100.00;99885.31;5022460;28;1387;-73
2023/10/30 04:47:19;;;;;;;;;;;;;;;9.20;100.00;99881.94;5019961;28;1413;-73
2023/10/30 04:49:45;;;;;;;;;;;;;;;9.18;100.00;99877.88;5020368;28;1257;-73
2023/10/30 04:52:10;;;;;;;;;;;;;;;9.17;100.00;99881.38;5020467;28;1230;-73
2023/10/30 04:54:36;;;;;;;;;;;;;;;9.16;100.00;99875.38;5022163;28;1922;-73
2023/10/30 04:57:01;;;;;;;;;;;;;;;9.15;100.00;99880.72;5020941;28;1010;-74
2023/10/30 04:59:26;;;;;;;;;;;;;;;9.14;100.00;99871.31;5021305;28;1390;-73
2023/10/30 05:01:51;;;;;;;;;;;;;;;9.13;100.00;99880.03;5015519;28;1381;-73
2023/10/30 05:04:18;;;;;;;;;;;;;;;9.14;100.00;99871.31;5018586;28;1345;-73
2023/10/30 05:06:43;;;;;;;;;;;;;;;9.13;100.00;99869.69;5021961;28;1295;-73
2023/10/30 05:09:09;;;;;;;;;;;;;;;9.13;100.00;99870.50;5024189;28;1283;-73
2023/10/30 05:11:38;;;;;;;;;;;;;;;9.12;100.00;99870.63;5023176;28;1415;-73
2023/10/30 05:14:03;;;;;;;;;;;;;;;9.12;100.00;99857.69;5022108;28;1563;-73
2023/10/30 05:16:29;;;;;;;;;;;;;;;9.13;100.00;99859.34;5021454;28;1890;-74
2023/10/30 05:18:54;;;;;;;;;;;;;;;9.13;100.00;99859.34;5018814;28;1258;-73
2023/10/30 05:21:19;;;;;;;;;;;;;;;9.14;100.00;99864.38;5015821;28;1185;-74
2023/10/30 05:23:44;;;;;;;;;;;;;;;9.15;100.00;99862.59;5024625;28;1450;-73
2023/10/30 05:26:10;;;;;;;;;;;;;;;9.16;100.00;99864.22;5018382;28;1194;-72
2023/10/30 05:28:35;;;;;;;;;;;;;;;9.15;100.00;99867.78;5024017;28;1334;-73
2023/10/30 05:31:04;;;;;;;;;;;;;;;9.17;100.00;99865.84;5003362;28;1280;-74
2023/10/30 05:33:29;;;;;;;;;;;;;;;9.19;100.00;99869.16;5022565;28;1326;-74
2023/10/30 05:35:55;;;;;;;;;;;;;;;9.17;100.00;99868.44;5000846;28;1902;-72
2023/10/30 05:38:20;;;;;;;;;;;;;;;9.17;100.00;99861.50;5018103;28;1389;-73
2023/10/30 05:40:48;;;;;;;;;;;;;;;9.16;100.00;99853.88;5023257;28;1073;-73
2023/10/30 05:43:14;;;;;;;;;;;;;;;9.17;100.00;99850.34;5023416;28;1274;-72
2023/10/30 05:45:39;;;;;;;;;;;;;;;9.16;100.00;99853.88;5024592;28;1246;-73
2023/10/30 05:48:04;;;;;;;;;;;;;;;9.15;100.00;99841.91;5024605;28;1345;-73
2023/10/30 05:50:30;;;;;;;;;;;;;;;9.14;100.00;99853.22;5021957;28;1458;-76
2023/10/30 05:52:55;;;;;;;;;;;;;;;9.13;100.00;99861.94;5000566;28;1263;-73
2023/10/30 05:55:20;;;;;;;;;;;;;;;9.12;100.00;99855.09;5020776;28;1983;-73
2023/10/30 05:57:45;;;;;;;;;;;;;;;9.11;100.00;99856.06;5018156;28;1308;-73
2023/10/30 06:00:11;;;;;;;;;;;;;;;9.11;100.00;99861.25;5003184;28;1280;-73
2023/10/30 06:02:36;;;;;;;;;;;;;;;9.11;100.00;99871.59;5022961;28;1393;-72
2023/10/30 06:05:06;;;;;;;;;;;;;;;9.09;100.00;99868.34;5022513;28;1395;-73
2023/10/30 06:07:31;;;;;;;;;;;;;;;9.08;100.00;99861.53;5024683;28;1281;-73
2023/10/30 06:09:57;;;;;;;;;;;;;;;9.08;100.00;99867.53;5026868;28;1436;-72
2023/10/30 06:12:22;;;;;;;;;;;;;;;9.08;100.00;99866.72;5024956;28;1315;-73
2023/10/30 06:14:47;;;;;;;;;;;;;;;9.07;100.00;99865.09;5012816;28;1977;-75
2023/10/30 06:17:12;;;;;;;;;;;;;;;9.07;100.00;99870.25;5017657;28;1297;-75
2023/10/30 06:19:38;;;;;;;;;;;;;;;9.05;100.00;99863.44;5018826;28;1330;-72
2023/10/30 06:22:03;;;;;;;;;;;;;;;9.06;100.00;99872.03;5017674;28;1255;-73
2023/10/30 06:24:28;;;;;;;;;;;;;;;9.07;100.00;99867.66;5012218;28;1028;-72
2023/10/30 06:26:53;;;;;;;;;;;;;;;9.07;100.00;99875.44;5020481;28;1344;-72
2023/10/30 06:29:19;;;;;;;;;;;;;;;9.07;100.00;99875.44;5018543;28;1393;-75
2023/10/30 06:31:44;;;;;;;;;;;;;;;9.05;100.00;99873.78;5021171;28;1192;-72
2023/10/30 06:34:09;;;;;;;;;;;;;;;9.07;100.00;99875.44;5014438;28;1365;-74
2023/10/30 06:36:34;;;;;;;;;;;;;;;9.07;100.00;99880.59;4996277;28;1955;-72
2023/10/30 06:39:01;;;;;;;;;;;;;;;9.05;100.00;99898.81;5019636;28;1362;-72
2023/10/30 06:41:26;;;;;;;;;;;;;;;9.04;100.00;99905.78;5021924;28;1092;-74
2023/10/30 06:43:51;;;;;;;;;;;;;;;9.04;100.00;99898.00;5021849;28;1214;-73
2023/10/30 06:46:17;;;;;;;;;;;;;;;9.01;100.00;99903.47;5021598;28;1201;-74
2023/10/30 06:48:42;;;;;;;;;;;;;;;9.02;100.00;99910.28;5005574;28;1379;-72
2023/10/30 06:51:07;;;;;;;;;;;;;;;9.00;100.00;99907.03;5017670;28;1519;-74
2023/10/30 06:53:32;;;;;;;;;;;;;;;9.01;100.00;99903.47;5021158;28;1353;-75
2023/10/30 06:55:58;;;;;;;;;;;;;;;8.97;100.00;99907.28;5001410;28;1945;-74
2023/10/30 06:58:23;;;;;;;;;;;;;;;8.98;100.00;99914.09;5020469;28;1178;-72
2023/10/30 07:00:48;;;;;;;;;;;;;;;8.99;100.00;99915.72;5019560;28;1302;-72
2023/10/30 07:03:13;;;;;;;;;;;;;;;8.97;100.00;99912.44;5017292;28;1258;-73
2023/10/30 07:05:39;;;;;;;;;;;;;;;8.98;100.00;99924.44;5020583;28;1326;-73
2023/10/30 07:08:04;;;;;;;;;;;;;;;8.99;100.00;99926.06;5025169;28;1230;-73
2023/10/30 07:10:29;;;;;;;;;;;;;;;8.99;100.00;99923.47;5017383;28;1221;-73
2023/10/30 07:12:54;;;;;;;;;;;;;;;8.97;100.00;99933.16;5010717;28;1259;-74
2023/10/30 07:15:20;;;;;;;;;;;;;;;8.98;100.00;99939.13;5022296;28;1957;-72
2023/10/30 07:17:45;;;;;;;;;;;;;;;8.98;100.00;99937.34;5019900;28;1326;-73
2023/10/30 07:20:11;;;;;;;;;;;;;;;8.98;100.00;99933.97;5020136;28;1232;-73
2023/10/30 07:22:36;;;;;;;;;;;;;;;8.95;100.00;99924.72;5022908;28;1344;-72
2023/10/30 07:25:02;;;;;;;;;;;;;;;8.98;100.00;99929.59;5018754;28;1201;-72
2023/10/30 07:27:27;;;;;;;;;;;;;;;8.98;100.00;99945.13;5016836;28;1219;-74
2023/10/30 07:29:52;;;;;;;;;;;;;;;8.99;100.00;99957.09;5002761;28;1618;-73
2023/10/30 07:32:18;;;;;;;;;;;;;;;9.00;100.00;99963.94;5016923;28;1221;-76
2023/10/30 07:34:43;;;;;;;;;;;;;;;9.00;100.00;99958.75;5017203;28;1898;-74
2023/10/30 07:37:08;;;;;;;;;;;;;;;9.02;100.00;99956.84;5015593;28;1296;-75
2023/10/30 07:39:33;;;;;;;;;;;;;;;9.05;100.00;99966.88;5020872;28;1170;-74
2023/10/30 07:41:59;;;;;;;;;;;;;;;9.08;100.00;99965.00;5007479;28;1271;-74
2023/10/30 07:44:24;;;;;;;;;;;;;;;9.10;100.00;99968.25;5016250;28;1300;-74
2023/10/30 07:46:49;;;;;;;;;;;;;;;9.11;100.00;99964.72;5023307;28;1214;-74
2023/10/30 07:49:14;;;;;;;;;;;;;;;9.13;100.00;99973.19;5023401;28;1388;-74
2023/10/30 07:51:40;;;;;;;;;;;;;;;9.14;100.00;99980.78;5024496;28;1185;-74
2023/10/30 07:54:06;;;;;;;;;;;;;;;9.17;100.00;99977.09;5021889;28;1188;-74
2023/10/30 07:56:31;;;;;;;;;;;;;;;9.20;100.00;99963.91;5027792;28;1895;-74
2023/10/30 07:58:56;;;;;;;;;;;;;;;9.23;100.00;99968.78;5024277;28;1167;-74
2023/10/30 08:01:21;;;;;;;;;;;;;;;9.26;100.00;99978.88;5027200;28;1223;-74
2023/10/30 08:03:46;;;;;;;;;;;;;;;9.31;100.00;99972.34;5028630;28;1134;-74
2023/10/30 08:06:12;;;;;;;;;;;;;;;9.36;100.00;99974.53;5009271;28;1321;-74
2023/10/30 08:08:38;;;;;;;;;;;;;;;9.42;100.00;99979.13;5028153;28;1531;-74
2023/10/30 08:11:03;;;;;;;;;;;;;;;9.47;100.00;99976.97;5025995;28;1261;-74
2023/10/30 08:13:28;;;;;;;;;;;;;;;9.53;100.00;99976.41;5023799;28;1338;-74
2023/10/30 08:15:53;;;;;;;;;;;;;;;9.59;100.00;99982.78;5024875;28;1961;-74
2023/10/30 08:18:19;;;;;;;;;;;;;;;9.68;100.00;99978.53;5001699;28;1614;-75
2023/10/30 08:20:44;;;;;;;;;;;;;;;9.77;100.00;99972.53;5021870;28;1511;-74
2023/10/30 08:23:09;;;;;;;;;;;;;;;9.82;100.00;99959.97;5021765;28;1038;-74
2023/10/30 08:25:35;;;;;;;;;;;;;;;9.88;100.00;99964.59;5019973;28;1065;-75
2023/10/30 08:28:00;;;;;;;;;;;;;;;9.95;100.00;99976.00;5024612;28;1180;-73
2023/10/30 08:30:26;;;;;;;;;;;;;;;10.01;100.00;99962.47;5019306;28;1064;-74
2023/10/30 08:32:51;;;;;;;;;;;;;;;10.08;100.00;99954.94;5009075;28;1375;-74
2023/10/30 08:35:16;;;;;;;;;;;;;;;10.15;100.00;99960.38;5010986;28;1898;-74
2023/10/30 08:37:41;;;;;;;;;;;;;;;10.21;100.00;99965.81;5024677;28;1086;-72
2023/10/30 08:40:08;;;;;;;;;;;;;;;10.25;100.00;99976.72;5020219;28;1294;-74
2023/10/30 08:42:33;;;;;;;;;;;;;;;10.28;100.00;99971.28;5005629;28;1541;-75
2023/10/30 08:44:58;;;;;;;;;;;;;;;10.31;100.00;99976.16;5008394;28;1295;-74
2023/10/30 08:47:23;;;;;;;;;;;;;;;10.33;100.00;99974.25;5023482;28;1361;-73
2023/10/30 08:49:49;;;;;;;;;;;;;;;10.37;100.00;99972.97;5025936;28;1252;-73
2023/10/30 08:52:14;;;;;;;;;;;;;;;10.40;100.00;99974.47;5027718;28;1260;-73
2023/10/30 08:54:40;;;;;;;;;;;;;;;10.44;100.00;99974.06;5022239;28;1898;-73
2023/10/30 08:57:06;;;;;;;;;;;;;;;10.46;100.00;99979.91;5024029;28;1284;-74
2023/10/30 08:59:31;;;;;;;;;;;;;;;10.50;100.00;99972.66;5025274;28;1245;-75
2023/10/30 09:01:57;;;;;;;;;;;;;;;10.52;100.00;99974.13;5026413;28;1249;-76
2023/10/30 09:04:22;;;;;;;;;;;;;;;10.53;100.00;99975.75;5022398;28;1140;-73
2023/10/30 09:06:48;;;;;;;;;;;;;;;10.55;100.00;99970.41;5023464;28;1257;-74
2023/10/30 09:09:13;;;;;;;;;;;;;;;10.57;100.00;99971.09;5027222;28;1293;-74
2023/10/30 09:11:39;;;;;;;;;;;;;;;10.57;100.00;99961.56;5021931;28;1138;-73
2023/10/30 09:14:04;;;;;;;;;;;;;;;10.61;100.00;99968.09;5024949;28;1210;-75
2023/10/30 09:16:29;;;;;;;;;;;;;;;10.63;100.00;99976.53;5020034;28;1894;-74
2023/10/30 09:18:54;;;;;;;;;;;;;;;10.67;100.00;99989.19;5023085;28;1356;-75
2023/10/30 09:21:20;;;;;;;;;;;;;;;10.70;100.00;99991.50;5023999;28;1283;-73
2023/10/30 09:23:45;;;;;;;;;;;;;;;10.74;100.00;99993.66;5022748;28;1224;-74
2023/10/30 09:26:10;;;;;;;;;;;;;;;10.79;100.00;99982.84;5017758;28;1418;-73
2023/10/30 09:28:36;;;;;;;;;;;;;;;10.82;100.00;99992.91;5021693;28;1360;-75
2023/10/30 09:31:01;;;;;;;;;;;;;;;10.85;100.00;99992.63;5024587;28;1182;-74
2023/10/30 09:33:27;;;;;;;;;;;;;;;10.88;100.00;99989.72;5019317;28;1120;-74
2023/10/30 09:35:52;;;;;;;;;;;;;;;10.87;100.00;99982.91;5019720;28;1902;-76
2023/10/30 09:38:17;;;;;;;;;;;;;;;10.96;100.00;99978.63;5024567;28;1357;-74
2023/10/30 09:40:44;;;;;;;;;;;;;;;11.00;100.00;99972.97;5027184;28;1448;-73
2023/10/30 09:43:09;;;;;;;;;;;;;;;11.06;100.00;99971.56;5024683;28;1269;-74
2023/10/30 09:45:35;;;;;;;;;;;;;;;11.10;100.00;99962.53;5000295;28;1492;-73
2023/10/30 09:48:02;;;;;;;;;;;;;;;11.14;100.00;99969.88;5019723;28;1247;-75
2023/10/30 09:50:27;;;;;;;;;;;;;;;11.19;100.00;99971.22;5023624;28;1456;-74
2023/10/30 09:52:53;;;;;;;;;;;;;;;11.19;100.00;99971.22;5022661;28;1077;-73
2023/10/30 09:55:19;;;;;;;;;;;;;;;11.24;100.00;99964.59;5006369;28;1950;-74
2023/10/30 09:57:48;;;;;;;;;;;;;;;11.25;100.00;99961.03;5025448;28;1226;-75
2023/10/30 10:00:13;;;;;;;;;;;;;;;11.27;100.00;99960.88;5023735;28;1514;-74
2023/10/30 10:02:40;;;;;;;;;;;;;;;11.30;100.00;99958.81;5025989;28;1205;-73
2023/10/30 10:05:05;;;;;;;;;;;;;;;11.35;100.00;99966.13;5020894;28;1030;-74
2023/10/30 10:07:31;;;;;;;;;;;;;;;11.38;100.00;99960.63;5024872;28;1273;-76
2023/10/30 10:10:02;;;;;;;;;;;;;;;11.42;100.00;99967.16;5021949;28;1258;-74
2023/10/30 10:12:31;;;;;;;;;;;;;;;11.45;100.00;99964.25;5003891;28;1445;-74
2023/10/30 10:14:57;;;;;;;;;;;;;;;11.48;100.00;99956.16;5019037;28;1914;-74
2023/10/30 10:17:22;;;;;;;;;;;;;;;11.49;100.00;99950.00;5020353;28;1467;-74
2023/10/30 10:19:48;;;;;;;;;;;;;;;11.49;100.00;99944.81;5004651;28;1181;-73
2023/10/30 10:22:26;;;;;;;;;;;;;;;11.50;100.00;99949.03;5003717;28;1325;-74
2023/10/30 10:24:52;;;;;;;;;;;;;;;11.51;100.00;99949.84;5019570;28;1161;-74
2023/10/30 10:27:19;;;;;;;;;;;;;;;11.51;100.00;99952.44;5003329;28;1355;-75
2023/10/30 10:29:44;;;;;;;;;;;;;;;11.52;100.00;99952.28;5015091;28;1493;-75
2023/10/30 10:32:11;;;;;;;;;;;;;;;11.53;100.00;99953.94;5018903;28;1649;-74
2023/10/30 10:34:36;;;;;;;;;;;;;;;11.52;100.00;99947.09;5017253;28;1934;-75
2023/10/30 10:37:02;;;;;;;;;;;;;;;11.51;100.00;99950.66;5016224;28;1083;-74
2023/10/30 10:39:27;;;;;;;;;;;;;;;11.51;100.00;99935.06;5019834;28;1206;-74
2023/10/30 10:41:53;;;;;;;;;;;;;;;11.52;100.00;99931.50;5022278;28;1295;-75
2023/10/30 10:44:19;;;;;;;;;;;;;;;11.54;100.00;99929.59;5022774;28;1152;-74
2023/10/30 10:46:44;;;;;;;;;;;;;;;11.54;100.00;99939.97;5022146;28;1346;-74
2023/10/30 10:49:09;;;;;;;;;;;;;;;11.57;100.00;99931.06;5015302;28;1026;-74
2023/10/30 10:51:35;;;;;;;;;;;;;;;11.59;100.00;99927.34;5021065;28;1274;-73
2023/10/30 10:54:05;;;;;;;;;;;;;;;11.63;100.00;99933.84;5019782;28;1180;-74
2023/10/30 10:56:33;;;;;;;;;;;;;;;11.65;100.00;99926.72;5023308;28;1918;-74
2023/10/30 10:59:01;;;;;;;;;;;;;;;11.68;100.00;99923.81;5024799;28;1132;-75
2023/10/30 11:01:27;;;;;;;;;;;;;;;11.72;100.00;99926.94;5003211;28;1343;-73
2023/10/30 11:03:53;;;;;;;;;;;;;;;11.74;100.00;99916.38;5022462;28;1082;-74
2023/10/30 11:06:20;;;;;;;;;;;;;;;11.74;100.00;99918.97;5020231;28;1214;-73
2023/10/30 11:08:46;;;;;;;;;;;;;;;11.77;100.00;99913.47;5004646;28;1310;-73
2023/10/30 11:11:30;;;;;;;;;;;;;;;11.80;100.00;99918.34;5015516;28;1088;-74
2023/10/30 11:14:03;;;;;;;;;;;;;;;11.81;100.00;99918.22;5022188;28;1277;-74
2023/10/30 11:16:30;;;;;;;;;;;;;;;11.84;100.00;99909.31;5003668;28;1957;-73
2023/10/30 11:18:59;;;;;;;;;;;;;;;11.86;100.00;99902.16;5003247;28;1455;-73
2023/10/30 11:21:27;;;;;;;;;;;;;;;11.89;100.00;99901.88;5020163;28;1744;-73
2023/10/30 11:23:56;;;;;;;;;;;;;;;11.93;100.00;99900.59;5018201;28;1323;-74
2023/10/30 11:26:38;;;;;;;;;;;;;;;11.95;100.00;99896.84;5018636;28;1492;-75
2023/10/30 11:29:22;;;;;;;;;;;;;;;11.98;100.00;99885.31;5019769;28;1220;-76
2023/10/30 11:32:00;;;;;;;;;;;;;;;12.01;100.00;99885.03;5015031;28;1267;-74
2023/10/30 11:34:29;;;;;;;;;;;;;;;12.03;100.00;99883.06;5021586;28;1059;-74
2023/10/30 11:36:57;;;;;;;;;;;;;;;12.04;100.00;99878.69;5000947;28;1253;-74
2023/10/30 11:39:24;;;;;;;;;;;;;;;12.03;100.00;99877.88;5001588;28;1226;-75
2023/10/30 11:41:55;;;;;;;;;;;;;;;12.03;100.00;99872.66;5023502;28;1181;-74
2023/10/30 11:44:21;;;;;;;;;;;;;;;12.03;100.00;99871.84;5020782;28;1499;-75
2023/10/30 11:46:50;;;;;;;;;;;;;;;12.03;100.00;99867.47;5024099;28;1155;-74
2023/10/30 11:49:17;;;;;;;;;;;;;;;12.04;100.00;99863.91;5007506;28;1189;-74
2023/10/30 11:51:45;;;;;;;;;;;;;;;12.04;100.00;99863.91;5020239;28;1583;-73
2023/10/30 11:54:10;;;;;;;;;;;;;;;12.03;100.00;99866.66;5022956;28;1054;-74
2023/10/30 11:56:36;;;;;;;;;;;;;;;12.01;100.00;99864.22;5020820;28;1961;-74
2023/10/30 11:59:02;;;;;;;;;;;;;;;12.00;100.00;99867.81;5016228;28;1192;-73
2023/10/30 12:01:28;;;;;;;;;;;;;;;11.98;100.00;99864.53;5015204;28;1037;-74
2023/10/30 12:03:53;;;;;;;;;;;;;;;11.97;100.00;99857.72;5002319;28;1373;-74
2023/10/30 12:06:19;;;;;;;;;;;;;;;11.97;100.00;99857.72;5016280;28;1234;-74
2023/10/30 12:08:44;;;;;;;;;;;;;;;11.98;100.00;99854.13;4999092;28;1301;-74
2023/10/30 12:11:10;;;;;;;;;;;;;;;11.98;100.00;99848.94;5017115;28;1360;-73
2023/10/30 12:13:35;;;;;;;;;;;;;;;11.99;100.00;99840.19;5015060;28;1069;-73
2023/10/30 12:16:00;;;;;;;;;;;;;;;12.00;100.00;99847.00;5021016;28;1902;-73
2023/10/30 12:18:25;;;;;;;;;;;;;;;12.02;100.00;99833.84;5019200;28;1345;-72
2023/10/30 12:20:50;;;;;;;;;;;;;;;12.00;100.00;99836.63;5017455;28;1543;-74
2023/10/30 12:23:16;;;;;;;;;;;;;;;12.00;100.00;99836.63;5021026;28;1255;-75
2023/10/30 12:25:41;;;;;;;;;;;;;;;12.01;100.00;99833.03;5001283;28;1133;-74
2023/10/30 12:28:06;;;;;;;;;;;;;;;12.00;100.00;99826.22;5017559;28;1070;-73
2023/10/30 12:30:35;;;;;;;;;;;;;;;12.00;100.00;99815.81;5012025;28;1038;-74
2023/10/30 12:33:00;;;;;;;;;;;;;;;12.01;100.00;99816.63;5003224;28;1209;-75
2023/10/30 12:35:25;;;;;;;;;;;;;;;12.02;100.00;99816.47;5021671;28;1890;-73
2023/10/30 12:37:51;;;;;;;;;;;;;;;12.02;100.00;99806.06;5020922;28;1410;-73
2023/10/30 12:40:16;;;;;;;;;;;;;;;12.02;100.00;99808.69;5022906;28;1129;-74
2023/10/30 12:42:42;;;;;;;;;;;;;;;12.04;100.00;99803.31;5021387;28;1194;-74
2023/10/30 12:45:09;;;;;;;;;;;;;;;12.06;100.00;99796.19;5005646;28;1339;-73